createdAt,value
2017-08-18T00:00:25.646Z,18.70
2017-08-18T00:02:53.049Z,18.80
2017-08-18T00:05:21.254Z,18.80
2017-08-18T00:07:48.663Z,18.80
2017-08-18T00:10:16.074Z,18.70
2017-08-18T00:12:43.496Z,18.70
2017-08-18T00:15:11.910Z,18.50
2017-08-18T00:17:39.327Z,18.50
2017-08-18T00:20:06.742Z,18.40
2017-08-18T00:22:34.158Z,18.40
2017-08-18T00:25:01.575Z,18.40
2017-08-18T00:27:28.995Z,18.30
2017-08-18T00:29:57.317Z,18.10
2017-08-18T00:32:24.742Z,18.10
2017-08-18T00:34:52.159Z,18.20
2017-08-18T00:37:19.579Z,18.10
2017-08-18T00:39:47.001Z,18.20
2017-08-18T00:42:14.418Z,18.30
2017-08-18T00:44:42.342Z,18.40
2017-08-18T00:47:11.054Z,18.50
2017-08-18T00:49:38.478Z,18.50
2017-08-18T00:52:05.914Z,18.40
2017-08-18T00:54:33.299Z,18.60
2017-08-18T00:57:01.370Z,18.70
2017-08-18T00:59:29.678Z,18.70
2017-08-18T01:01:57.090Z,18.60
2017-08-18T01:04:24.506Z,18.60
2017-08-18T01:06:52.511Z,18.70
2017-08-18T01:09:19.946Z,18.80
2017-08-18T01:11:47.354Z,18.90
2017-08-18T01:14:14.774Z,18.90
2017-08-18T01:16:42.179Z,18.90
2017-08-18T01:19:10.033Z,18.90
2017-08-18T01:21:37.438Z,18.90
2017-08-18T01:24:04.854Z,18.80
2017-08-18T01:26:32.266Z,18.60
2017-08-18T01:28:59.691Z,18.70
2017-08-18T01:31:27.097Z,18.70
2017-08-18T01:33:54.533Z,18.80
2017-08-18T01:36:21.942Z,18.80
2017-08-18T01:38:51.261Z,19.00
2017-08-18T01:41:18.674Z,19.00
2017-08-18T01:43:46.081Z,19.10
2017-08-18T01:46:13.502Z,19.10
2017-08-18T01:48:40.914Z,19.10
2017-08-18T01:51:08.330Z,19.00
2017-08-18T01:53:36.508Z,19.20
2017-08-18T01:56:04.478Z,19.20
2017-08-18T01:58:31.894Z,19.30
2017-08-18T02:00:59.309Z,19.30
2017-08-18T02:03:26.718Z,19.50
2017-08-18T02:05:54.137Z,19.50
2017-08-18T02:08:21.556Z,19.60
2017-08-18T02:10:49.734Z,19.40
2017-08-18T02:13:17.146Z,19.40
2017-08-18T02:15:44.570Z,19.30
2017-08-18T02:18:11.980Z,19.20
2017-08-18T02:20:40.034Z,19.10
2017-08-18T02:23:07.450Z,18.80
2017-08-18T02:25:34.856Z,18.70
2017-08-18T02:28:02.277Z,18.70
2017-08-18T02:30:29.694Z,18.60
2017-08-18T02:32:58.426Z,18.60
2017-08-18T02:35:25.836Z,18.60
2017-08-18T02:37:54.026Z,18.70
2017-08-18T02:40:21.433Z,18.60
2017-08-18T02:42:49.164Z,18.70
2017-08-18T02:45:16.578Z,18.70
2017-08-18T02:47:44.778Z,18.60
2017-08-18T02:50:12.170Z,18.50
2017-08-18T02:52:39.590Z,18.30
2017-08-18T02:55:07.002Z,18.20
2017-08-18T02:57:34.421Z,18.00
2017-08-18T03:00:01.834Z,18.00
2017-08-18T03:02:30.034Z,18.20
2017-08-18T03:04:57.439Z,18.10
2017-08-18T03:07:25.609Z,18.30
2017-08-18T03:09:54.214Z,18.30
2017-08-18T03:12:23.489Z,18.40
2017-08-18T03:14:50.910Z,18.40
2017-08-18T03:17:18.322Z,18.30
2017-08-18T03:19:45.743Z,18.20
2017-08-18T03:22:13.153Z,18.10
2017-08-18T03:24:40.573Z,18.00
2017-08-18T03:27:07.980Z,17.90
2017-08-18T03:29:35.399Z,18.00
2017-08-18T03:32:02.810Z,18.10
2017-08-18T03:34:30.219Z,18.30
2017-08-18T03:36:57.636Z,18.40
2017-08-18T03:39:25.048Z,18.60
2017-08-18T03:41:52.450Z,18.60
2017-08-18T03:44:19.866Z,18.60
2017-08-18T03:46:47.287Z,18.60
2017-08-18T03:49:14.701Z,18.60
2017-08-18T03:51:42.110Z,18.80
2017-08-18T03:54:10.293Z,19.10
2017-08-18T03:56:38.611Z,19.00
2017-08-18T03:59:06.027Z,19.10
2017-08-18T04:01:34.889Z,19.40
2017-08-18T04:04:02.294Z,19.40
2017-08-18T04:06:30.018Z,19.60
2017-08-18T04:08:58.194Z,20.00
2017-08-18T04:11:27.302Z,20.10
2017-08-18T04:13:54.712Z,20.10
2017-08-18T04:16:22.130Z,20.20
2017-08-18T04:18:49.538Z,20.20
2017-08-18T04:21:17.019Z,20.20
2017-08-18T04:23:45.189Z,20.20
2017-08-18T04:26:13.573Z,20.20
2017-08-18T04:28:42.478Z,20.20
2017-08-18T04:31:09.893Z,20.20
2017-08-18T04:33:37.309Z,20.30
2017-08-18T04:36:06.614Z,20.40
2017-08-18T04:38:34.035Z,20.50
2017-08-18T04:41:02.210Z,20.60
2017-08-18T04:43:31.294Z,20.70
2017-08-18T04:46:00.093Z,20.80
2017-08-18T04:48:27.595Z,20.80
2017-08-18T04:50:54.992Z,20.80
2017-08-18T04:53:22.406Z,20.80
2017-08-18T04:55:50.273Z,20.90
2017-08-18T04:58:18.070Z,20.90
2017-08-18T05:00:45.488Z,20.80
2017-08-18T05:03:12.903Z,20.80
2017-08-18T05:05:41.079Z,20.50
2017-08-18T05:08:09.259Z,20.60
2017-08-18T05:10:37.445Z,20.60
2017-08-18T05:13:04.858Z,20.60
2017-08-18T05:15:32.268Z,20.70
2017-08-18T05:17:59.685Z,20.80
2017-08-18T05:20:27.098Z,20.90
2017-08-18T05:22:54.511Z,20.90
2017-08-18T05:25:22.693Z,20.90
2017-08-18T05:27:50.102Z,20.80
2017-08-18T05:30:17.509Z,20.80
2017-08-18T05:32:44.921Z,20.90
2017-08-18T05:35:12.338Z,20.90
2017-08-18T05:37:39.764Z,20.70
2017-08-18T05:40:08.466Z,20.60
2017-08-18T05:42:35.869Z,20.60
2017-08-18T05:45:03.289Z,20.70
2017-08-18T05:47:31.217Z,20.80
2017-08-18T05:49:58.634Z,20.90
2017-08-18T05:52:26.975Z,21.00
2017-08-18T05:54:54.383Z,21.00
2017-08-18T05:57:21.795Z,21.10
2017-08-18T05:59:49.214Z,21.20
2017-08-18T06:02:16.618Z,21.20
2017-08-18T06:04:44.042Z,21.30
2017-08-18T06:07:12.217Z,22.10
2017-08-18T06:09:41.206Z,22.40
2017-08-18T06:12:10.051Z,22.60
2017-08-18T06:14:37.473Z,22.60
2017-08-18T06:17:04.882Z,22.80
2017-08-18T06:19:32.304Z,22.90
2017-08-18T06:21:59.715Z,23.10
2017-08-18T06:24:27.119Z,23.00
2017-08-18T06:26:54.530Z,22.60
2017-08-18T06:29:23.238Z,22.40
2017-08-18T06:31:50.646Z,22.30
2017-08-18T06:34:18.068Z,22.30
2017-08-18T06:36:46.261Z,22.50
2017-08-18T06:39:13.734Z,22.60
2017-08-18T06:41:41.125Z,22.70
2017-08-18T06:44:08.537Z,22.70
2017-08-18T06:46:35.958Z,22.80
2017-08-18T06:49:03.358Z,22.50
2017-08-18T06:51:30.792Z,22.50
2017-08-18T06:53:58.190Z,22.40
2017-08-18T06:56:26.370Z,22.20
2017-08-18T06:58:54.557Z,22.20
2017-08-18T07:01:22.638Z,22.20
2017-08-18T07:03:50.414Z,22.20
2017-08-18T07:06:17.830Z,22.10
2017-08-18T07:08:46.022Z,22.00
2017-08-18T07:11:14.738Z,22.10
2017-08-18T07:13:43.471Z,22.10
2017-08-18T07:16:11.714Z,22.40
2017-08-18T07:18:39.121Z,22.70
2017-08-18T07:21:06.530Z,22.90
2017-08-18T07:23:34.346Z,22.70
2017-08-18T07:26:01.759Z,22.50
2017-08-18T07:28:29.177Z,22.50
2017-08-18T07:30:57.350Z,22.40
2017-08-18T07:33:25.539Z,22.30
2017-08-18T07:35:52.945Z,22.20
2017-08-18T07:38:21.122Z,22.10
2017-08-18T07:40:49.306Z,22.10
2017-08-18T07:43:16.727Z,22.00
2017-08-18T07:45:44.146Z,22.00
2017-08-18T07:48:11.557Z,21.90
2017-08-18T07:50:40.407Z,21.80
2017-08-18T07:53:07.822Z,21.80
2017-08-18T07:55:35.235Z,21.70
2017-08-18T07:58:02.670Z,21.60
2017-08-18T08:00:30.073Z,21.60
2017-08-18T08:02:58.254Z,21.50
2017-08-18T08:05:26.438Z,21.70
2017-08-18T08:07:55.006Z,21.70
2017-08-18T08:10:23.194Z,21.70
2017-08-18T08:12:51.182Z,21.70
2017-08-18T08:15:18.610Z,21.80
2017-08-18T08:17:46.793Z,21.80
2017-08-18T08:20:14.213Z,21.80
2017-08-18T08:22:41.643Z,21.70
2017-08-18T08:25:09.050Z,21.70
2017-08-18T08:27:37.227Z,21.50
2017-08-18T08:30:05.419Z,21.60
2017-08-18T08:32:32.830Z,21.60
2017-08-18T08:35:00.255Z,21.60
2017-08-18T08:37:27.662Z,21.60
2017-08-18T08:39:55.843Z,21.80
2017-08-18T08:42:24.025Z,21.80
2017-08-18T08:44:52.217Z,22.10
2017-08-18T08:47:19.623Z,22.10
2017-08-18T08:49:47.046Z,22.30
2017-08-18T08:52:14.454Z,22.40
2017-08-18T08:54:42.653Z,22.90
2017-08-18T08:57:10.065Z,22.90
2017-08-18T08:59:37.490Z,23.40
2017-08-18T09:02:04.905Z,23.60
2017-08-18T09:04:32.320Z,23.60
2017-08-18T09:06:59.741Z,23.50
2017-08-18T09:09:27.162Z,23.20
2017-08-18T09:11:54.571Z,23.20
2017-08-18T09:14:21.981Z,23.20
2017-08-18T09:16:49.926Z,23.30
2017-08-18T09:19:17.345Z,23.40
2017-08-18T09:21:44.753Z,23.20
2017-08-18T09:24:12.935Z,23.10
2017-08-18T09:26:41.126Z,23.00
2017-08-18T09:29:08.539Z,23.00
2017-08-18T09:31:35.977Z,23.20
2017-08-18T09:34:03.382Z,23.40
2017-08-18T09:36:31.557Z,23.50
2017-08-18T09:38:59.747Z,23.60
2017-08-18T09:41:28.061Z,23.60
2017-08-18T09:43:56.254Z,23.60
2017-08-18T09:46:24.312Z,23.40
2017-08-18T09:49:03.558Z,23.40
2017-08-18T09:51:55.471Z,23.60
2017-08-18T09:54:46.291Z,23.50
2017-08-18T09:57:25.671Z,23.60
2017-08-18T09:59:54.001Z,23.50
2017-08-18T10:02:21.414Z,23.80
2017-08-18T10:04:48.829Z,24.00
2017-08-18T10:07:16.242Z,24.10
2017-08-18T10:09:43.669Z,23.90
2017-08-18T10:12:11.074Z,24.00
2017-08-18T10:14:38.495Z,24.20
2017-08-18T10:17:06.581Z,24.40
2017-08-18T10:19:33.993Z,24.50
2017-08-18T10:22:02.169Z,24.30
2017-08-18T10:24:30.353Z,24.20
2017-08-18T10:26:57.774Z,24.10
2017-08-18T10:29:25.200Z,24.20
2017-08-18T10:31:52.610Z,24.40
2017-08-18T10:34:20.800Z,24.70
2017-08-18T10:36:48.901Z,24.60
2017-08-18T10:39:16.319Z,24.80
2017-08-18T10:41:43.731Z,25.30
2017-08-18T10:44:11.146Z,25.80
2017-08-18T10:46:38.563Z,26.40
2017-08-18T10:49:05.970Z,27.10
2017-08-18T10:51:34.174Z,27.30
2017-08-18T10:54:01.586Z,27.50
2017-08-18T10:56:30.566Z,27.60
2017-08-18T10:58:57.978Z,28.00
2017-08-18T11:01:26.170Z,28.40
2017-08-18T11:03:53.571Z,28.50
2017-08-18T11:06:20.989Z,28.30
2017-08-18T11:08:49.174Z,29.00
2017-08-18T11:11:17.353Z,29.00
2017-08-18T11:13:44.766Z,29.00
2017-08-18T11:16:12.757Z,29.60
2017-08-18T11:18:40.174Z,29.80
2017-08-18T11:21:07.592Z,29.80
2017-08-18T11:23:36.413Z,29.60
2017-08-18T11:26:03.826Z,29.60
2017-08-18T11:28:32.010Z,28.80
2017-08-18T11:31:00.190Z,28.30
2017-08-18T11:33:27.608Z,28.30
2017-08-18T11:35:55.138Z,27.30
2017-08-18T11:38:22.541Z,26.90
2017-08-18T11:40:50.717Z,25.80
2017-08-18T11:43:18.894Z,26.00
2017-08-18T11:45:47.080Z,25.80
2017-08-18T11:48:14.498Z,25.80
2017-08-18T11:50:41.901Z,25.30
2017-08-18T11:53:09.315Z,25.50
2017-08-18T11:55:37.250Z,25.60
2017-08-18T11:58:04.678Z,25.20
2017-08-18T12:00:32.083Z,25.10
2017-08-18T12:02:59.502Z,25.40
2017-08-18T12:05:26.915Z,25.20
2017-08-18T12:07:54.340Z,25.10
2017-08-18T12:10:21.739Z,25.30
2017-08-18T12:12:49.922Z,24.90
2017-08-18T12:15:18.107Z,24.60
2017-08-18T12:17:45.516Z,24.50
2017-08-18T12:20:12.934Z,24.60
2017-08-18T12:22:40.338Z,24.80
2017-08-18T12:25:08.523Z,24.60
2017-08-18T12:27:35.925Z,24.50
2017-08-18T12:30:03.344Z,24.60
2017-08-18T12:32:30.750Z,24.50
2017-08-18T12:34:58.165Z,24.30
2017-08-18T12:37:25.578Z,24.10
2017-08-18T12:39:53.474Z,24.20
2017-08-18T12:42:21.660Z,24.20
2017-08-18T12:44:49.079Z,24.20
2017-08-18T12:47:16.486Z,23.90
2017-08-18T12:49:43.894Z,24.00
2017-08-18T12:52:11.319Z,24.00
2017-08-18T12:54:39.413Z,24.00
2017-08-18T12:57:06.830Z,24.20
2017-08-18T12:59:34.247Z,24.40
2017-08-18T13:02:01.670Z,24.80
2017-08-18T13:04:29.097Z,24.80
2017-08-18T13:06:57.130Z,24.90
2017-08-18T13:09:26.094Z,24.80
2017-08-18T13:11:54.379Z,24.80
2017-08-18T13:14:21.786Z,24.60
2017-08-18T13:16:49.205Z,24.70
2017-08-18T13:19:16.614Z,24.80
2017-08-18T13:21:44.049Z,24.50
2017-08-18T13:24:11.459Z,24.60
2017-08-18T13:26:39.247Z,24.70
2017-08-18T13:29:07.437Z,24.40
2017-08-18T13:31:35.606Z,24.60
2017-08-18T13:34:03.026Z,24.50
2017-08-18T13:36:30.438Z,24.30
2017-08-18T13:38:58.996Z,24.30
2017-08-18T13:41:26.406Z,24.20
2017-08-18T13:43:54.385Z,23.90
2017-08-18T13:46:21.802Z,23.90
2017-08-18T13:48:49.222Z,23.80
2017-08-18T13:51:16.635Z,23.80
2017-08-18T13:53:44.045Z,23.90
2017-08-18T13:56:12.938Z,23.80
2017-08-18T13:58:41.126Z,23.70
2017-08-18T14:01:08.534Z,23.60
2017-08-18T14:03:35.943Z,23.90
2017-08-18T14:06:03.349Z,23.90
2017-08-18T14:08:31.086Z,23.30
2017-08-18T14:10:58.509Z,23.20
2017-08-18T14:13:25.921Z,23.20
2017-08-18T14:15:53.337Z,23.00
2017-08-18T14:18:20.757Z,22.90
2017-08-18T14:20:48.170Z,22.50
2017-08-18T14:23:15.583Z,22.10
2017-08-18T14:25:49.542Z,21.60
2017-08-18T14:28:16.968Z,21.50
2017-08-18T14:30:44.386Z,21.20
2017-08-18T14:33:11.785Z,20.70
2017-08-18T14:35:39.224Z,20.20
2017-08-18T14:38:07.652Z,19.90
2017-08-18T14:40:35.511Z,19.70
2017-08-18T14:43:02.931Z,19.30
2017-08-18T14:45:31.253Z,18.70
2017-08-18T14:47:58.654Z,18.40
2017-08-18T14:50:26.070Z,18.20
2017-08-18T14:52:53.490Z,18.20
2017-08-18T14:55:20.901Z,18.10
2017-08-18T14:57:48.314Z,17.90
2017-08-18T15:00:15.730Z,17.80
2017-08-18T15:02:44.615Z,17.40
2017-08-18T15:05:12.789Z,17.30
2017-08-18T15:07:40.978Z,17.20
2017-08-18T15:10:09.962Z,17.20
2017-08-18T15:12:38.146Z,17.30
2017-08-18T15:15:05.549Z,17.20
2017-08-18T15:17:32.963Z,17.30
2017-08-18T15:20:01.067Z,17.40
2017-08-18T15:22:28.518Z,17.50
2017-08-18T15:24:55.925Z,17.60
2017-08-18T15:27:24.628Z,17.50
2017-08-18T15:29:52.049Z,17.40
2017-08-18T15:32:19.465Z,17.40
2017-08-18T15:34:47.685Z,17.30
2017-08-18T15:37:15.399Z,17.20
2017-08-18T15:39:42.810Z,17.20
2017-08-18T15:42:12.490Z,17.20
2017-08-18T15:44:39.906Z,17.20
2017-08-18T15:47:07.314Z,17.20
2017-08-18T15:49:34.736Z,17.20
2017-08-18T15:52:02.152Z,17.20
2017-08-18T15:54:29.577Z,17.20
2017-08-18T15:56:56.982Z,17.20
2017-08-18T15:59:24.401Z,17.20
2017-08-18T16:01:52.710Z,17.30
2017-08-18T16:04:20.130Z,17.30
2017-08-18T16:06:47.550Z,17.20
2017-08-18T16:09:14.978Z,17.10
2017-08-18T16:11:43.067Z,17.10
2017-08-18T16:14:10.478Z,17.00
2017-08-18T16:16:37.893Z,17.00
2017-08-18T16:19:05.302Z,17.00
2017-08-18T16:21:33.390Z,17.00
2017-08-18T16:24:01.702Z,17.00
2017-08-18T16:26:29.125Z,17.00
2017-08-18T16:28:56.530Z,17.00
2017-08-18T16:31:23.950Z,17.00
2017-08-18T16:33:51.366Z,16.90
2017-08-18T16:36:18.786Z,16.90
2017-08-18T16:38:46.973Z,16.90
2017-08-18T16:41:14.398Z,17.00
2017-08-18T16:43:41.803Z,17.00
2017-08-18T16:46:09.245Z,17.00
2017-08-18T16:48:36.658Z,16.90
2017-08-18T16:51:04.593Z,16.80
2017-08-18T16:53:32.002Z,16.80
2017-08-18T16:56:01.939Z,16.80
2017-08-18T16:58:29.363Z,16.70
2017-08-18T17:00:56.763Z,16.60
2017-08-18T17:03:24.409Z,16.70
2017-08-18T17:05:51.824Z,16.70
2017-08-18T17:08:19.229Z,16.60
2017-08-18T17:10:46.645Z,16.50
2017-08-18T17:13:14.062Z,16.50
2017-08-18T17:15:41.478Z,16.50
2017-08-18T17:18:08.903Z,16.40
2017-08-18T17:20:36.314Z,16.40
2017-08-18T17:23:03.743Z,16.40
2017-08-18T17:25:31.154Z,16.40
2017-08-18T17:27:59.344Z,16.40
2017-08-18T17:30:26.758Z,16.40
2017-08-18T17:32:54.179Z,16.40
2017-08-18T17:35:21.587Z,16.40
2017-08-18T17:37:48.998Z,16.40
2017-08-18T17:40:16.414Z,16.30
2017-08-18T17:42:43.828Z,16.20
2017-08-18T17:45:11.254Z,16.20
2017-08-18T17:47:38.666Z,16.30
2017-08-18T17:50:06.082Z,16.30
2017-08-18T17:52:33.509Z,16.20
2017-08-18T17:55:00.919Z,16.20
2017-08-18T17:57:28.641Z,16.10
2017-08-18T17:59:56.062Z,16.10
2017-08-18T18:02:24.242Z,16.10
2017-08-18T18:04:52.162Z,16.10
2017-08-18T18:07:20.094Z,16.10
2017-08-18T18:09:47.514Z,16.10
2017-08-18T18:12:15.690Z,16.20
2017-08-18T18:14:43.105Z,16.10
2017-08-18T18:17:10.532Z,16.20
2017-08-18T18:19:37.938Z,16.20
2017-08-18T18:22:05.361Z,16.20
2017-08-18T18:24:32.765Z,16.10
2017-08-18T18:27:00.187Z,16.10
2017-08-18T18:29:27.590Z,16.10
2017-08-18T18:31:55.015Z,16.20
2017-08-18T18:34:22.426Z,16.20
2017-08-18T18:36:49.842Z,16.30
2017-08-18T18:39:17.259Z,16.20
2017-08-18T18:41:44.674Z,16.20
2017-08-18T18:44:12.842Z,16.20
2017-08-18T18:46:41.038Z,16.20
2017-08-18T18:49:08.443Z,16.10
2017-08-18T18:51:35.851Z,16.20
2017-08-18T18:54:03.819Z,16.10
2017-08-18T18:56:31.228Z,16.10
2017-08-18T18:58:58.653Z,16.10
2017-08-18T19:01:26.062Z,16.10
2017-08-18T19:03:53.478Z,16.00
2017-08-18T19:06:20.887Z,16.00
2017-08-18T19:08:48.303Z,16.00
2017-08-18T19:11:15.714Z,15.90
2017-08-18T19:13:43.960Z,15.90
2017-08-18T19:16:11.374Z,15.90
2017-08-18T19:18:38.796Z,15.90
2017-08-18T19:21:06.205Z,15.90
2017-08-18T19:23:33.638Z,15.90
2017-08-18T19:26:01.054Z,16.00
2017-08-18T19:28:29.250Z,15.90
2017-08-18T19:30:56.926Z,15.90
2017-08-18T19:33:24.334Z,15.90
2017-08-18T19:35:52.518Z,15.90
2017-08-18T19:38:20.570Z,15.90
2017-08-18T19:40:47.995Z,15.90
2017-08-18T19:43:15.402Z,15.90
2017-08-18T19:45:42.818Z,15.80
2017-08-18T19:48:10.234Z,15.80
2017-08-18T19:50:37.658Z,15.80
2017-08-18T19:53:05.070Z,15.80
2017-08-18T19:55:32.487Z,15.70
2017-08-18T19:57:59.902Z,15.70
2017-08-18T20:00:28.336Z,15.70
2017-08-18T20:02:55.737Z,15.70
2017-08-18T20:05:23.142Z,15.80
2017-08-18T20:07:50.563Z,15.80
2017-08-18T20:10:17.971Z,15.80
2017-08-18T20:12:45.393Z,15.80
2017-08-18T20:15:13.574Z,15.90
2017-08-18T20:17:40.990Z,15.90
2017-08-18T20:20:08.399Z,15.90
2017-08-18T20:22:35.812Z,16.00
2017-08-18T20:25:03.221Z,16.00
2017-08-18T20:27:30.642Z,16.10
2017-08-18T20:29:58.145Z,16.00
2017-08-18T20:32:25.545Z,16.20
2017-08-18T20:34:53.723Z,16.20
2017-08-18T20:37:21.846Z,16.20
2017-08-18T20:39:49.253Z,16.20
2017-08-18T20:42:16.960Z,16.30
2017-08-18T20:44:44.379Z,16.30
2017-08-18T20:47:12.550Z,16.40
2017-08-18T20:49:40.729Z,16.40
2017-08-18T20:52:08.150Z,16.40
2017-08-18T20:54:35.782Z,16.50
2017-08-18T20:57:03.173Z,16.40
2017-08-18T20:59:30.600Z,16.40
2017-08-18T21:01:58.010Z,16.40
2017-08-18T21:04:26.227Z,16.50
2017-08-18T21:06:53.642Z,16.50
2017-08-18T21:09:21.834Z,16.40
2017-08-18T21:11:49.320Z,16.40
2017-08-18T21:14:16.727Z,16.40
2017-08-18T21:16:44.146Z,16.50
2017-08-18T21:19:11.551Z,16.50
2017-08-18T21:21:38.962Z,16.50
2017-08-18T21:24:06.379Z,16.40
2017-08-18T21:26:33.803Z,16.50
2017-08-18T21:29:01.362Z,16.50
2017-08-18T21:31:28.778Z,16.60
2017-08-18T21:33:56.186Z,16.60
2017-08-18T21:36:24.258Z,16.40
2017-08-18T21:38:52.444Z,16.40
2017-08-18T21:41:19.862Z,16.40
2017-08-18T21:43:47.684Z,16.40
2017-08-18T21:46:15.100Z,16.40
2017-08-18T21:48:42.511Z,16.40
2017-08-18T21:51:09.926Z,16.40
2017-08-18T21:53:37.344Z,16.30
2017-08-18T21:56:04.802Z,16.30
2017-08-18T21:58:32.228Z,16.20
2017-08-18T22:00:59.657Z,16.10
2017-08-18T22:03:27.069Z,16.00
2017-08-18T22:05:54.471Z,16.00
2017-08-18T22:08:22.406Z,15.90
2017-08-18T22:10:49.817Z,16.00
2017-08-18T22:13:18.176Z,16.10
2017-08-18T22:15:45.577Z,16.10
2017-08-18T22:18:12.991Z,16.10
2017-08-18T22:20:40.402Z,16.10
2017-08-18T22:23:07.822Z,16.10
2017-08-18T22:25:35.238Z,16.10
2017-08-18T22:28:04.203Z,16.10
2017-08-18T22:30:31.620Z,16.10
2017-08-18T22:32:59.038Z,16.10
2017-08-18T22:35:27.222Z,16.20
2017-08-18T22:37:54.661Z,16.20
2017-08-18T22:40:22.082Z,16.20
2017-08-18T22:42:49.504Z,16.00
2017-08-18T22:45:16.915Z,16.00
2017-08-18T22:47:44.335Z,16.00
2017-08-18T22:50:11.894Z,16.00
2017-08-18T22:52:39.286Z,16.00
2017-08-18T22:55:07.862Z,16.00
2017-08-18T22:57:35.274Z,16.00
2017-08-18T23:00:02.690Z,16.00
2017-08-18T23:02:30.867Z,16.00
2017-08-18T23:04:58.288Z,15.90
2017-08-18T23:07:25.703Z,16.00
2017-08-18T23:09:53.118Z,16.00
2017-08-18T23:12:21.043Z,15.90
2017-08-18T23:14:48.453Z,16.00
2017-08-18T23:17:16.627Z,15.90
2017-08-18T23:19:44.836Z,15.90
2017-08-18T23:22:12.247Z,15.90
2017-08-18T23:24:39.666Z,15.90
2017-08-18T23:27:09.009Z,15.90
2017-08-18T23:29:36.426Z,15.80
2017-08-18T23:32:04.757Z,15.80
2017-08-18T23:34:32.169Z,15.70
2017-08-18T23:36:59.587Z,15.60
2017-08-18T23:39:26.998Z,15.50
2017-08-18T23:41:54.423Z,15.50
2017-08-18T23:44:21.838Z,15.40
2017-08-18T23:46:49.257Z,15.30
2017-08-18T23:49:16.667Z,15.20
2017-08-18T23:51:44.105Z,15.20
2017-08-18T23:54:11.919Z,15.00
2017-08-18T23:56:39.317Z,15.00
2017-08-18T23:59:06.738Z,14.90
